Station: Cape Wessel  

  Atmospheric Gas Attenuation - ITU Rec 676-11   ----------------- dB/100km -----------------
Date Time Temp RH % AH g/m3 Dew Point Wind Direction Speed kph Gust kph Barometer mB Rainfall Since 9am 24GHz 47GHz 76GHz 122GHz 134GHz 241GHz
03/05 13:10 28.9 78 22.29 24.7 33 37 1011.3 0.2 47.5 44.3 88.5 234.4 263.1 914.5
03/05 13:00 28.9 78 22.29 24.7 32 39 1011.4 0.2 47.5 44.3 88.5 234.5 263.1 914.5
03/05 12:50 29 80 22.98 25.2 30 33 1011.5 0.2 48.9 45.6 91.8 243.1 273.7 951.5
03/05 12:40 29 77 22.12 24.6 35 41 1011.5 0.2 47.1 43.9 87.6 232.0 260.1 904.1
03/05 12:30 29 79 22.69 25 28 35 1011.6 0.2 48.3 45.0 90.4 239.4 269.1 935.4
03/05 12:20 28.9 79 22.57 24.9 32 35 1011.7 0.2 48.1 44.9 89.9 238.1 267.6 930.1
03/05 12:10 28.9 79 22.57 24.9 26 30 1011.8 0.2 48.1 44.9 89.9 238.2 267.6 930.2
03/05 12:00 28.7 79 22.33 24.7 33 39 1011.8 0.2 47.6 44.5 89.0 235.7 264.5 919.4
03/05 11:50 28.6 80 22.49 24.8 33 37 1011.9 0.2 48.0 44.9 89.9 238.1 267.4 929.5
03/05 11:39 28.5 80 22.36 24.7 33 37 1011.9 0.2 47.7 44.7 89.4 236.7 265.7 923.6
03/05 11:30 28.4 82 22.8 25 35 43 1011.9 0.2 48.6 45.6 91.7 242.8 273.1 949.3
03/05 11:20 28.5 83 23.2 25.3 32 35 1011.9 0.2 49.5 46.3 93.5 247.7 279.2 970.4
03/05 11:10 28.3 82 22.67 24.9 35 39 1012.1 0.2 48.4 45.4 91.2 241.4 271.4 943.4
03/05 11:00 28.3 82 22.67 24.9 35 44 1012.2 0.2 48.4 45.4 91.2 241.4 271.5 943.5
03/05 10:50 28.2 83 22.82 25 35 41 1012.2 0.2 48.7 45.8 92.0 243.7 274.3 953.1
03/05 10:40 28.3 85 23.5 25.5 32 37 1012.2 0 50.1 47.1 95.3 252.4 284.9 990.3
03/05 10:30 28 85 23.12 25.2 35 44 1012.2 0 49.4 46.5 93.8 248.4 279.9 972.6
03/05 10:20 27.8 84 22.6 24.8 41 44 1012.2 0 48.3 45.6 91.4 242.1 272.2 945.9
03/05 10:10 27.8 87 23.4 25.4 33 41 1012.1 0 50.0 47.2 95.4 252.8 285.2 991.1
03/05 10:00 27.7 87 23.27 25.3 35 46 1012 0 49.7 46.9 94.9 251.3 283.4 985.0
03/05 09:50 27.6 88 23.41 25.4 32 35 1012 0 50.0 47.3 95.7 253.6 286.1 994.3
03/05 09:40 27.3 88 23.03 25.1 39 43 1012.1 0 49.3 46.7 94.2 249.5 281.0 976.6
03/05 09:30 27.3 91 23.81 25.7 33 43 1012.1 0 50.9 48.3 98.2 260.1 294.0 1021.5
03/05 09:20 27 91 23.42 25.4 32 37 1012.2 0 50.1 47.7 96.6 255.8 288.7 1003.1
03/05 09:10 26.8 93 23.67 25.6 32 39 1012.2 0 50.7 48.3 98.1 259.9 293.7 1020.3
03/05 09:00 26.7 94 23.79 25.7 35 43 1012.2 0 51.0 48.6 98.9 261.9 296.1 1028.7
03/05 08:50 26.4 94 23.4 25.4 41 48 1012.1 16.2 50.2 48.0 97.3 257.6 290.7 1010.0
03/05 08:40 26.2 94 23.14 25.2 41 44 1011.8 16.2 49.7 47.5 96.2 254.7 287.1 997.4
03/05 08:30 26.3 96 23.77 25.6 35 44 1011.7 16 51.0 48.8 99.3 263.0 297.3 1032.8
03/05 08:20 25.4 95 22.37 24.5 30 37 1011.8 15.6 48.1 46.4 93.2 246.9 277.3 963.3
03/05 08:10 24.9 95 21.75 24 35 43 1011.8 14.4 46.8 45.4 90.7 240.1 268.9 933.9
03/05 08:00 26.4 96 23.9 25.7 28 43 1011.4 10.2 51.3 49.0 99.8 264.3 299.0 1038.9
03/05 07:50 26.2 96 23.63 25.5 24 28 1011.3 10 50.7 48.5 98.7 261.3 295.2 1025.7
03/05 07:40 25.9 96 23.24 25.2 20 24 1011.3 9.6 49.9 47.9 97.0 257.0 289.9 1006.9
03/05 07:30 25.7 96 22.98 25 26 32 1011.2 8.8 49.4 47.5 95.9 254.1 286.2 994.4
03/05 07:20 25.6 96 22.86 24.9 24 28 1011.2 8.6 49.1 47.3 95.5 252.8 284.6 988.7
03/05 07:10 25.5 95 22.49 24.6 37 43 1010.9 7.6 48.4 46.6 93.7 248.0 278.8 968.3
03/05 07:00 25.3 95 22.24 24.4 33 43 1010.8 7.4 47.9 46.2 92.6 245.3 275.3 956.4
03/05 06:50 25.5 94 22.25 24.5 33 39 1010.7 7.4 47.9 46.1 92.4 244.7 274.7 954.4
03/05 06:40 25.8 90 21.67 24 41 48 1010.5 7.2 46.6 44.7 89.1 235.9 264.1 917.4
03/05 06:30 27.6 86 22.88 25 37 48 1010.1 7.2 48.9 46.1 92.9 246.1 277.1 962.9
03/05 06:20 27.7 88 23.54 25.5 30 33 1009.8 7.2 50.3 47.4 96.1 254.6 287.5 999.0
03/05 06:10 27.5 86 22.75 24.9 37 43 1009.6 7.2 48.7 45.9 92.4 244.6 275.3 956.5
03/05 06:00 27.6 87 23.15 25.2 33 43 1009.7 7.2 49.5 46.7 94.3 249.7 281.4 978.0
03/05 05:50 27.4 87 22.89 25 37 41 1009.5 7.2 49.0 46.2 93.2 246.8 277.9 965.7
03/05 05:40 27.4 87 22.89 25 35 39 1009.6 7.2 49.0 46.2 93.2 246.8 277.9 965.7
03/05 05:30 27.4 87 22.89 25 32 41 1009.6 7.2 49.0 46.2 93.2 246.8 277.9 965.7
03/05 05:20 27.3 87 22.77 24.9 33 37 1009.4 7.2 48.7 46.0 92.7 245.5 276.3 960.1
03/05 05:10 27.3 87 22.77 24.9 30 35 1009.2 7.2 48.7 46.0 92.7 245.5 276.3 960.0
03/05 05:00 27.1 87 22.52 24.7 32 43 1009.1 7.2 48.2 45.6 91.7 242.8 272.9 948.3
03/05 04:50 27.1 88 22.77 24.9 30 35 1008.9 7.2 48.8 46.1 92.9 246.1 277.0 962.4
03/05 04:40 27.1 88 22.77 24.9 30 35 1008.9 7.2 48.8 46.1 92.9 246.1 277.0 962.4
03/05 04:30 27.2 89 23.16 25.2 32 37 1009 7.2 49.6 46.9 94.8 251.0 283.0 983.4
03/05 04:20 27.1 89 23.03 25.1 30 33 1008.9 7.2 49.3 46.7 94.2 249.6 281.2 977.2
03/05 04:10 27.3 90 23.55 25.5 30 33 1009 7.2 50.4 47.6 96.6 255.9 289.1 1004.5
03/05 04:00 27.3 90 23.55 25.5 30 37 1009.1 7.2 50.4 47.6 96.6 256.0 289.1 1004.5
03/05 03:50 27.3 90 23.55 25.5 32 35 1009.1 7.2 50.4 47.6 96.6 256.0 289.1 1004.5
03/05 03:40 27.4 90 23.68 25.6 24 30 1009 7.2 50.7 47.8 97.2 257.4 290.9 1010.6
03/05 03:30 27.2 90 23.42 25.4 28 35 1008.9 7.2 50.1 47.4 96.1 254.5 287.3 998.3
03/05 03:20 27.2 91 23.68 25.6 30 35 1008.8 7.2 50.7 47.9 97.4 258.0 291.6 1013.2
03/05 03:10 27.4 92 24.21 26 26 33 1009 7.2 51.8 48.9 99.9 264.6 299.7 1041.4
03/05 03:00 27.2 91 23.68 25.6 28 35 1009 7.2 50.7 47.9 97.4 258.1 291.6 1013.4
03/05 02:50 27.2 91 23.68 25.6 26 32 1009.1 7.2 50.7 47.9 97.4 258.1 291.7 1013.4
03/05 02:40 27.3 92 24.07 25.9 26 33 1009.3 7.2 51.5 48.7 99.3 263.1 297.8 1034.9
03/05 02:30 27.1 91 23.55 25.5 30 35 1009.5 7.2 50.4 47.7 96.9 256.7 290.0 1007.5
03/05 02:20 27.2 92 23.94 25.8 28 33 1009.6 7.2 51.2 48.5 98.8 261.7 296.1 1028.9
03/05 02:10 27.1 92 23.81 25.7 28 32 1009.7 7.2 51.0 48.3 98.3 260.3 294.4 1022.7
03/05 02:00 27.1 93 24.07 25.9 28 33 1009.8 7.2 51.5 48.8 99.6 263.9 298.7 1038.0
03/05 01:50 27.2 93 24.2 26 28 32 1009.8 7.2 51.8 49.0 100.2 265.3 300.5 1044.2
03/05 01:40 27.3 94 24.6 26.2 24 26 1009.9 7.2 52.6 49.8 102.1 270.5 306.9 1066.4
03/05 01:30 27.1 93 24.07 25.9 24 30 1010 7.2 51.5 48.8 99.7 263.9 298.8 1038.1
03/05 01:20 27 93 23.94 25.8 24 28 1010.1 7.2 51.3 48.6 99.1 262.5 297.0 1032.0
03/05 01:10 27.1 93 24.07 25.9 24 28 1010.1 7.2 51.5 48.9 99.7 264.0 298.8 1038.2
03/05 01:00 26.9 93 23.8 25.7 26 33 1010.2 7.2 51.0 48.4 98.5 261.0 295.1 1025.2
03/05 00:50 26.9 93 23.8 25.7 26 30 1010.3 7.2 51.0 48.4 98.5 261.0 295.1 1025.3
03/05 00:40 26.7 93 23.54 25.5 24 30 1010.4 7.2 50.4 48.0 97.5 258.1 291.6 1013.0
03/05 00:30 26.7 93 23.54 25.5 26 32 1010.4 7.2 50.4 48.0 97.5 258.1 291.6 1013.0
03/05 00:20 26.8 93 23.67 25.6 24 28 1010.5 7.2 50.7 48.2 98.0 259.6 293.4 1019.2
03/05 00:10 26.9 92 23.55 25.5 28 33 1010.5 7.2 50.4 47.9 97.3 257.6 290.9 1010.9
03/05 00:00 26.8 92 23.42 25.4 30 37 1010.5 7.2 50.2 47.7 96.7 256.2 289.2 1004.7
02/05 23:50 26.5 93 23.28 25.3 30 32 1010.5 7.2 49.9 47.6 96.4 255.3 288.0 1000.6
02/05 23:40 26.4 94 23.4 25.4 28 35 1010.6 7.2 50.2 47.9 97.2 257.3 290.4 1009.0
02/05 23:30 26.3 94 23.27 25.3 28 33 1010.7 7.2 49.9 47.7 96.6 255.9 288.7 1002.9
02/05 23:20 26.4 95 23.65 25.5 26 32 1010.7 7.2 50.7 48.4 98.5 260.8 294.7 1023.7
02/05 23:10 26.5 95 23.78 25.6 26 30 1010.6 7.2 51.0 48.6 99.0 262.2 296.4 1029.9
02/05 23:00 26.5 95 23.78 25.6 24 32 1010.7 7.2 51.0 48.6 99.0 262.2 296.5 1030.0
02/05 22:50 26.5 95 23.78 25.6 24 28 1010.8 7.2 51.0 48.6 99.0 262.2 296.5 1030.0
02/05 22:40 26.6 94 23.66 25.6 30 39 1010.8 7.2 50.7 48.3 98.3 260.2 294.0 1021.6
02/05 22:30 26.2 95 23.39 25.3 22 30 1010.8 7.2 50.2 48.0 97.4 257.9 291.1 1011.3
02/05 22:20 26.4 95 23.65 25.5 22 26 1010.9 7.2 50.7 48.4 98.5 260.8 294.7 1023.8
02/05 22:10 26.7 96 24.3 26 28 30 1011 7.2 52.1 49.6 101.5 268.8 304.5 1058.0
02/05 22:00 26.4 95 23.65 25.5 28 33 1010.9 7.2 50.7 48.4 98.5 260.8 294.7 1023.8
02/05 21:50 26.5 96 24.03 25.8 24 28 1010.8 7.2 51.5 49.2 100.3 265.7 300.7 1044.7
02/05 21:40 26.4 96 23.9 25.7 28 32 1010.7 7.2 51.3 48.9 99.8 264.2 298.9 1038.4
02/05 21:30 26.2 96 23.63 25.5 26 33 1010.8 7.2 50.7 48.5 98.6 261.2 295.2 1025.4
02/05 21:20 26.3 96 23.77 25.6 26 28 1010.9 7.2 51.0 48.7 99.2 262.8 297.1 1032.3
02/05 21:10 26.1 96 23.5 25.4 22 26 1010.9 6.8 50.4 48.3 98.1 259.8 293.4 1019.2
02/05 21:00 26 95 23.13 25.1 35 48 1011 5.4 49.7 47.6 96.3 255.1 287.6 999.0
02/05 20:50 26 93 22.64 24.8 39 46 1010.9 2 48.6 46.6 93.8 248.4 279.3 970.5
02/05 20:40 28.2 84 23.1 25.2 33 39 1010.6 0 49.3 46.3 93.3 247.2 278.5 967.9

Last Refresh: 03-May-2026 13:18:32

Bureau of Meteorology